Time;durP1;ratioP1;P1;durP2;ratioP2;P2;SDS_P1;SDS_P2;PMS_P1;PMS_P2;Temp;Humidity;BMP_temperature;BMP_pressure;BME280_temperature;BME280_humidity;BME280_pressure;Samples;Min_cycle;Max_cycle;Signal;HPM_P1;HPM_P2
2022/01/01 00:02:23;;;;;;;15.48;9.88;;;;;;;11.61;100.00;100747.13;8288819;28;20106;-78
2022/01/01 00:06:38;;;;;;;24.55;16.60;;;;;;;11.58;100.00;100732.97;8276154;28;20411;-78
2022/01/01 00:10:40;;;;;;;21.73;13.02;;;;;;;11.58;100.00;100732.97;8268877;28;20081;-78
2022/01/01 00:14:49;;;;;;;17.63;11.07;;;;;;;11.48;100.00;100739.03;8261649;28;20061;-78
2022/01/01 00:18:51;;;;;;;14.63;9.03;;;;;;;11.49;100.00;100739.88;8270732;28;20045;-78
2022/01/01 00:22:53;;;;;;;15.00;9.85;;;;;;;11.48;100.00;100744.56;8281674;28;20073;-78
2022/01/01 00:26:57;;;;;;;14.27;10.13;;;;;;;11.46;100.00;100732.06;8267337;28;20467;-78
2022/01/01 00:31:00;;;;;;;16.42;10.35;;;;;;;11.44;100.00;100732.28;8281750;28;20042;-78
2022/01/01 00:35:05;;;;;;;22.35;14.38;;;;;;;11.32;100.00;100726.72;8270271;28;20046;-79
2022/01/01 00:39:06;;;;;;;;;;;;;;;11.26;100.00;100724.88;8258845;28;20582;-79
2022/01/01 00:43:10;;;;;;;100.70;75.68;;;;;;;11.29;100.00;100729.09;8261659;28;20295;-78
2022/01/01 00:47:12;;;;;;;20.95;12.93;;;;;;;11.26;100.00;100724.03;8261988;28;20046;-79
2022/01/01 00:51:13;;;;;;;28.20;18.65;;;;;;;11.24;100.00;100729.78;8258796;28;20038;-78
2022/01/01 00:55:15;;;;;;;20.52;12.60;;;;;;;11.22;100.00;100734.72;8274676;28;20113;-78
2022/01/01 00:59:16;;;;;;;18.85;10.70;;;;;;;11.20;100.00;100733.25;8276013;28;20624;-78
2022/01/01 01:03:18;;;;;;;23.30;13.30;;;;;;;11.20;100.00;100731.31;8286818;28;20114;-78
2022/01/01 01:07:20;;;;;;;19.85;11.93;;;;;;;11.17;100.00;100735.38;8278972;28;20101;-79
2022/01/01 01:11:21;;;;;;;62.83;40.53;;;;;;;11.12;100.00;100735.25;8262655;28;20049;-79
2022/01/01 01:15:24;;;;;;;18.08;11.52;;;;;;;11.10;100.00;100731.88;8275804;28;20052;-79
2022/01/01 01:19:26;;;;;;;16.77;10.43;;;;;;;11.09;100.00;100732.09;8266273;28;20097;-79
2022/01/01 01:23:27;;;;;;;23.85;12.10;;;;;;;11.11;100.00;100744.59;8262612;28;20480;-79
2022/01/01 01:27:30;;;;;;;18.90;11.95;;;;;;;11.05;100.00;100733.66;8272693;28;20451;-78
2022/01/01 01:31:31;;;;;;;19.00;11.00;;;;;;;11.05;100.00;100745.50;8287591;28;20106;-79
2022/01/01 01:35:33;;;;;;;15.85;9.50;;;;;;;11.03;100.00;100746.81;8286051;28;20490;-80
2022/01/01 01:39:35;;;;;;;17.20;10.07;;;;;;;10.96;100.00;100757.94;8286716;28;20058;-80
2022/01/01 01:43:37;;;;;;;18.20;10.15;;;;;;;10.95;100.00;100757.09;8288101;28;20046;-80
2022/01/01 01:47:39;;;;;;;16.23;10.50;;;;;;;10.97;100.00;100753.25;8265801;28;20085;-81
2022/01/01 01:51:41;;;;;;;20.80;10.82;;;;;;;10.89;100.00;100760.75;8248635;28;20054;-82
2022/01/01 01:55:42;;;;;;;16.52;10.23;;;;;;;10.84;100.00;100768.88;8264108;28;20069;-80
2022/01/01 01:59:44;;;;;;;18.45;11.57;;;;;;;10.83;100.00;100769.97;8263713;28;20068;-79
2022/01/01 02:03:47;;;;;;;19.17;11.05;;;;;;;10.82;100.00;100765.50;8269228;28;20034;-79
2022/01/01 02:07:50;;;;;;;20.10;11.45;;;;;;;10.85;100.00;100776.06;8271202;28;20102;-78
2022/01/01 02:11:53;;;;;;;17.45;10.70;;;;;;;10.86;100.00;100775.00;8265078;28;20150;-78
2022/01/01 02:20:03;;;;;;;20.63;11.43;;;;;;;10.83;100.00;100771.88;8269877;28;20089;-78
2022/01/01 02:24:05;;;;;;;17.73;11.32;;;;;;;10.86;100.00;100769.50;8266887;28;20053;-79
2022/01/01 02:28:07;;;;;;;18.88;10.43;;;;;;;10.85;100.00;100767.78;8259495;28;20507;-79
2022/01/01 02:32:11;;;;;;;16.13;10.07;;;;;;;10.85;100.00;100765.03;8256630;28;20080;-79
2022/01/01 02:36:13;;;;;;;18.35;10.63;;;;;;;10.89;100.00;100769.03;8267763;28;20801;-79
2022/01/01 02:40:15;;;;;;;21.80;11.32;;;;;;;10.88;100.00;100774.75;8270423;28;20077;-79
2022/01/01 02:44:20;;;;;;;20.02;11.43;;;;;;;10.89;100.00;100770.97;8266702;28;20069;-79
2022/01/01 02:48:23;;;;;;;16.83;10.27;;;;;;;10.88;100.00;100767.34;8265873;28;20065;-79
2022/01/01 02:52:24;;;;;;;18.35;10.43;;;;;;;10.86;100.00;100774.16;8260604;28;20134;-79
2022/01/01 02:56:26;;;;;;;19.17;10.07;;;;;;;10.82;100.00;100776.53;8262749;28;20153;-79
2022/01/01 03:00:27;;;;;;;19.83;10.18;;;;;;;10.87;100.00;100775.84;8258691;28;20130;-78
2022/01/01 03:04:29;;;;;;;16.45;9.18;;;;;;;10.82;100.00;100768.25;8254970;28;20084;-76
2022/01/01 03:08:31;;;;;;;15.13;8.70;;;;;;;10.79;100.00;100768.69;8264223;28;20153;-79
2022/01/01 03:12:32;;;;;;;13.20;8.82;;;;;;;10.74;100.00;100768.56;8261130;28;20125;-79
2022/01/01 03:16:34;;;;;;;16.08;8.77;;;;;;;10.71;100.00;100752.47;8272371;28;20089;-79
2022/01/01 03:20:36;;;;;;;16.77;8.40;;;;;;;10.63;100.00;100747.25;8261130;28;20050;-79
2022/01/01 03:24:37;;;;;;;15.35;7.68;;;;;;;10.60;100.00;100747.72;8265805;28;20066;-79
2022/01/01 03:28:39;;;;;;;15.45;8.48;;;;;;;10.60;100.00;100748.56;8264633;28;20117;-79
2022/01/01 03:32:41;;;;;;;15.27;8.48;;;;;;;10.63;100.00;100750.00;8269767;28;20423;-80
2022/01/01 03:36:42;;;;;;;14.40;8.93;;;;;;;10.68;100.00;100750.19;8264456;28;20046;-79
2022/01/01 03:40:44;;;;;;;14.02;8.70;;;;;;;10.68;100.00;100751.03;8250877;28;20674;-79
2022/01/01 03:44:45;;;;;;;14.23;7.45;;;;;;;10.64;100.00;100737.91;8271230;28;20065;-79
2022/01/01 03:48:47;;;;;;;13.82;7.45;;;;;;;10.69;100.00;100746.34;8264845;28;20107;-79
2022/01/01 03:52:48;;;;;;;14.32;8.27;;;;;;;10.65;100.00;100747.88;8259049;28;20070;-80
2022/01/01 03:56:50;;;;;;;14.43;8.35;;;;;;;10.63;100.00;100752.78;8256667;28;20089;-80
2022/01/01 04:00:52;;;;;;;16.73;8.60;;;;;;;10.71;100.00;100761.59;8260526;28;20134;-80
2022/01/01 04:04:53;;;;;;;16.58;8.35;;;;;;;10.71;100.00;100758.00;8259687;28;20137;-80
2022/01/01 04:08:55;;;;;;;14.48;7.72;;;;;;;10.74;100.00;100760.28;8272975;28;20142;-80
2022/01/01 04:13:01;;;;;;;18.52;7.85;;;;;;;10.77;100.00;100757.09;8252632;28;20149;-80
2022/01/01 04:17:02;;;;;;;15.85;7.70;;;;;;;10.80;100.00;100769.56;8258093;28;20779;-80
2022/01/01 04:21:07;;;;;;;13.23;7.57;;;;;;;10.75;100.00;100755.63;8260616;28;20066;-80
2022/01/01 04:25:08;;;;;;;13.55;7.78;;;;;;;10.79;100.00;100760.44;8268094;28;20046;-80
2022/01/01 04:29:10;;;;;;;14.68;7.95;;;;;;;10.80;100.00;100759.38;8257819;28;20497;-80
2022/01/01 04:33:12;;;;;;;13.83;8.10;;;;;;;10.81;100.00;100763.81;8261164;28;20050;-81
2022/01/01 04:37:15;;;;;;;16.95;8.27;;;;;;;10.84;100.00;100763.34;8274058;28;20050;-80
2022/01/01 04:41:17;;;;;;;12.63;7.45;;;;;;;10.86;100.00;100772.25;8278841;28;20514;-79
2022/01/01 04:45:19;;;;;;;11.90;7.15;;;;;;;10.88;100.00;100772.84;8277315;28;20130;-79
2022/01/01 04:49:22;;;;;;;14.32;7.15;;;;;;;10.84;100.00;100771.63;8290150;28;20063;-79
2022/01/01 04:53:24;;;;;;;;;;;;;;;10.85;100.00;100772.47;8263426;28;20129;-79
2022/01/01 04:57:30;;;;;;;16.20;7.30;;;;;;;10.86;100.00;100775.00;8248343;28;20386;-80
2022/01/01 05:01:31;;;;;;;12.68;6.95;;;;;;;10.90;100.00;100778.16;8258311;28;20093;-79
2022/01/01 05:05:33;;;;;;;17.23;7.88;;;;;;;10.88;100.00;100772.84;8256868;28;20042;-79
2022/01/01 05:09:35;;;;;;;11.52;6.90;;;;;;;10.89;100.00;100769.03;8268289;28;20133;-77
2022/01/01 05:13:36;;;;;;;12.35;7.75;;;;;;;10.90;100.00;100775.38;8256495;28;20456;-77
2022/01/01 05:17:38;;;;;;;12.27;6.82;;;;;;;10.91;100.00;100783.41;8251535;28;20065;-78
2022/01/01 05:21:39;;;;;;;13.40;7.35;;;;;;;10.92;100.00;100782.38;8261849;28;20074;-77
2022/01/01 05:25:41;;;;;;;12.40;6.97;;;;;;;10.91;100.00;100780.66;8250359;28;20607;-77
2022/01/01 05:29:43;;;;;;;14.48;7.68;;;;;;;10.90;100.00;100778.97;8256381;28;20137;-77
2022/01/01 05:33:46;;;;;;;15.05;9.07;;;;;;;10.86;100.00;100788.78;8259501;28;20129;-77
2022/01/01 05:37:47;;;;;;;;;;;;;;;10.88;100.00;100780.28;8256041;28;20132;-77
2022/01/01 05:41:54;;;;;;;13.57;7.55;;;;;;;10.91;100.00;100791.69;8265633;28;19925;-77
2022/01/01 05:45:56;;;;;;;15.98;8.02;;;;;;;10.90;100.00;100792.78;8260447;28;20145;-77
2022/01/01 05:49:58;;;;;;;14.90;8.98;;;;;;;10.91;100.00;100794.44;8261099;28;20125;-77
2022/01/01 05:54:00;;;;;;;13.70;7.73;;;;;;;10.92;100.00;100798.06;8260448;28;20049;-77
2022/01/01 05:58:01;;;;;;;14.48;7.55;;;;;;;10.94;100.00;100794.00;8255494;28;20038;-77
2022/01/01 06:02:03;;;;;;;13.75;7.72;;;;;;;10.94;100.00;100794.00;8249339;28;20442;-77
2022/01/01 06:06:05;;;;;;;15.80;9.00;;;;;;;10.89;100.00;100793.84;8262617;28;20688;-78
2022/01/01 06:10:27;;;;;;;13.52;7.88;;;;;;;10.87;100.00;100782.19;8264130;28;20155;-77
2022/01/01 06:14:28;;;;;;;13.60;7.63;;;;;;;10.85;100.00;100775.22;8264162;28;20042;-77
2022/01/01 06:18:31;;;;;;;13.95;7.28;;;;;;;10.83;100.00;100772.72;8255194;28;20054;-77
2022/01/01 06:22:32;;;;;;;14.85;8.43;;;;;;;10.81;100.00;100766.56;8260519;28;20062;-77
2022/01/01 06:26:34;;;;;;;14.43;7.35;;;;;;;10.80;100.00;100764.91;8269927;28;20074;-77
2022/01/01 06:30:35;;;;;;;13.95;7.63;;;;;;;10.74;100.00;100771.31;8252426;28;20121;-77
2022/01/01 06:34:37;;;;;;;16.65;8.02;;;;;;;10.66;100.00;100771.59;8256459;28;20042;-78
2022/01/01 06:38:41;;;;;;;15.00;7.53;;;;;;;10.62;100.00;100773.13;8270051;28;20579;-77
2022/01/01 06:42:42;;;;;;;18.02;8.35;;;;;;;10.51;100.00;100776.63;8265258;28;20153;-77
2022/01/01 06:46:44;;;;;;;14.63;8.05;;;;;;;10.38;100.00;100772.06;8260035;28;20161;-77
2022/01/01 06:50:46;;;;;;;16.25;8.18;;;;;;;10.20;100.00;100764.56;8253001;28;20050;-78
2022/01/01 06:54:47;;;;;;;18.58;8.93;;;;;;;10.10;100.00;100770.56;8250537;28;20077;-77
2022/01/01 06:58:49;;;;;;;19.85;10.13;;;;;;;9.93;100.00;100774.91;8259733;28;20062;-77
2022/01/01 07:02:50;;;;;;;15.85;9.23;;;;;;;9.80;100.00;100775.84;8256809;28;20070;-76
2022/01/01 07:06:52;;;;;;;16.92;9.30;;;;;;;9.64;100.00;100787.38;8262833;28;20145;-77
2022/01/01 07:10:54;;;;;;;19.67;8.88;;;;;;;9.59;100.00;100786.13;8260614;28;20093;-78
2022/01/01 07:14:55;;;;;;;18.13;9.82;;;;;;;9.66;100.00;100801.75;8271611;28;20126;-78
2022/01/01 07:18:57;;;;;;;18.13;9.93;;;;;;;9.82;100.00;100815.03;8260325;28;20106;-77
2022/01/01 07:22:59;;;;;;;17.92;8.93;;;;;;;9.93;100.00;100819.81;8268647;28;20061;-77
2022/01/01 07:27:00;;;;;;;16.02;9.00;;;;;;;10.07;100.00;100825.25;8257370;28;20125;-77
2022/01/01 07:31:02;;;;;;;22.33;8.95;;;;;;;10.13;100.00;100843.63;8256273;28;20061;-77
2022/01/01 07:35:04;;;;;;;15.75;8.07;;;;;;;10.18;100.00;100847.41;8251413;28;20487;-78
2022/01/01 07:39:05;;;;;;;16.10;8.13;;;;;;;10.23;100.00;100866.88;8260158;28;20357;-78
2022/01/01 07:43:12;;;;;;;17.48;8.18;;;;;;;10.32;100.00;100869.38;8258684;28;20080;-77
2022/01/01 07:47:13;;;;;;;13.88;8.35;;;;;;;10.35;100.00;100877.22;8258876;28;20463;-77
2022/01/01 07:51:15;;;;;;;17.63;8.85;;;;;;;10.38;100.00;100879.50;8246960;28;20070;-77
2022/01/01 07:55:16;;;;;;;14.25;7.75;;;;;;;10.37;100.00;100875.91;8263360;28;20450;-78
2022/01/01 07:59:18;;;;;;;13.32;8.05;;;;;;;10.39;100.00;100881.22;8233613;28;20049;-77
2022/01/01 08:03:20;;;;;;;15.40;8.55;;;;;;;10.41;100.00;100887.34;8252565;28;20740;-78
2022/01/01 08:07:21;;;;;;;15.07;8.15;;;;;;;10.49;100.00;100889.81;8267531;28;20069;-78
2022/01/01 08:11:43;;;;;;;14.07;8.02;;;;;;;10.54;100.00;100892.78;8260596;28;20042;-77
2022/01/01 08:15:44;;;;;;;16.55;8.63;;;;;;;10.56;100.00;100890.66;8247737;28;20125;-77
2022/01/01 08:19:46;;;;;;;15.05;8.43;;;;;;;10.60;100.00;100886.34;8257636;28;20384;-77
2022/01/01 08:23:48;;;;;;;16.38;8.57;;;;;;;10.65;100.00;100893.97;8258128;28;20077;-77
2022/01/01 08:27:49;;;;;;;17.45;8.02;;;;;;;10.78;100.00;100882.81;8257172;28;20057;-77
2022/01/01 08:31:51;;;;;;;17.88;8.40;;;;;;;10.84;100.00;100878.31;8258750;28;20084;-78
2022/01/01 08:35:53;;;;;;;14.25;7.80;;;;;;;10.95;100.00;100880.34;8254691;28;20121;-78
2022/01/01 08:39:54;;;;;;;16.25;8.15;;;;;;;11.02;100.00;100892.16;8261596;28;20077;-78
2022/01/01 08:43:56;;;;;;;16.77;8.07;;;;;;;11.02;100.00;100897.66;8259336;28;20070;-77
2022/01/01 08:47:57;;;;;;;14.77;8.27;;;;;;;11.06;100.00;100904.41;8258952;28;20078;-77
2022/01/01 08:51:59;;;;;;;16.05;8.98;;;;;;;11.03;100.00;100901.25;8260706;28;20050;-78
2022/01/01 08:56:02;;;;;;;14.00;7.45;;;;;;;10.92;100.00;100878.03;8253074;28;20047;-77
2022/01/01 09:00:09;;;;;;;16.00;8.88;;;;;;;10.93;100.00;100868.69;8261909;28;20129;-77
2022/01/01 09:04:11;;;;;;;18.23;8.50;;;;;;;10.89;100.00;100868.31;8255497;28;20073;-78
2022/01/01 09:08:12;;;;;;;16.88;9.35;;;;;;;10.92;100.00;100876.13;8265879;28;20122;-79
2022/01/01 09:12:14;;;;;;;20.38;9.73;;;;;;;10.94;100.00;100862.94;8256178;28;20125;-77
2022/01/01 09:16:19;;;;;;;18.85;9.73;;;;;;;11.04;100.00;100872.63;8254327;28;20137;-77
2022/01/01 09:20:20;;;;;;;17.10;10.20;;;;;;;11.07;100.00;100856.47;8268665;28;20073;-77
2022/01/01 09:24:22;;;;;;;16.35;9.50;;;;;;;11.25;100.00;100866.69;8273038;28;20042;-78
2022/01/01 09:28:24;;;;;;;19.77;11.07;;;;;;;11.26;100.00;100868.34;8257597;28;20126;-76
2022/01/01 09:32:26;;;;;;;22.05;11.25;;;;;;;11.28;100.00;100877.25;8259202;28;20303;-78
2022/01/01 09:36:27;;;;;;;19.80;10.65;;;;;;;11.26;100.00;100878.56;8260389;28;20499;-76
2022/01/01 09:40:31;;;;;;;16.52;10.10;;;;;;;11.39;100.00;100881.16;8270071;28;20050;-77
2022/01/01 09:44:36;;;;;;;18.48;9.57;;;;;;;11.52;100.00;100875.50;8254170;28;20451;-77
2022/01/01 09:48:38;;;;;;;19.73;10.00;;;;;;;11.64;100.00;100886.63;8263272;28;20073;-78
2022/01/01 09:52:40;;;;;;;17.52;9.02;;;;;;;11.59;100.00;100883.69;8255070;28;20039;-78
2022/01/01 09:56:41;;;;;;;18.53;10.10;;;;;;;11.67;100.00;100885.31;8261619;28;20050;-79
2022/01/01 10:00:43;;;;;;;16.88;9.30;;;;;;;11.74;100.00;100884.16;8265181;28;20310;-78
2022/01/01 10:04:51;;;;;;;19.42;9.60;;;;;;;11.79;100.00;100898.09;8245893;28;20105;-77
2022/01/01 10:09:03;;;;;;;19.95;10.13;;;;;;;11.80;99.91;100891.50;8268987;28;20141;-77
2022/01/01 10:13:11;;;;;;;17.88;10.63;;;;;;;11.74;99.70;100884.16;8287500;28;20057;-77
2022/01/01 10:17:18;;;;;;;20.38;9.65;;;;;;;11.76;99.25;100887.53;8270714;28;20046;-77
2022/01/01 10:21:27;;;;;;;18.15;10.13;;;;;;;11.76;98.99;100873.72;8277990;28;20356;-78
2022/01/01 10:29:55;;;;;;;17.58;9.85;;;;;;;11.90;98.29;100862.53;8259940;28;20076;-78
2022/01/01 10:33:58;;;;;;;19.00;9.70;;;;;;;11.93;97.92;100862.91;8258292;28;20511;-77
2022/01/01 10:38:02;;;;;;;;;;;;;;;12.05;97.40;100877.63;8275104;28;20046;-78
2022/01/01 10:42:12;;;;;;;16.27;9.18;;;;;;;12.01;96.98;100861.75;8268878;28;20413;-79
2022/01/01 10:46:16;;;;;;;17.35;10.15;;;;;;;12.10;96.50;100860.31;8267853;28;20085;-78
2022/01/01 10:50:18;;;;;;;17.58;9.35;;;;;;;12.07;96.15;100864.41;8263786;28;20042;-78
2022/01/01 10:54:25;;;;;;;15.38;8.57;;;;;;;12.14;96.55;100850.50;8276172;28;20130;-78
2022/01/01 10:58:34;;;;;;;17.35;9.23;;;;;;;12.24;96.29;100855.47;8276447;28;20057;-78
2022/01/01 11:02:37;;;;;;;13.32;7.63;;;;;;;12.40;95.84;100856.69;8286088;28;20054;-78
2022/01/01 11:06:41;;;;;;;17.63;8.15;;;;;;;12.49;95.17;100855.28;8273064;28;20064;-79
2022/01/01 11:10:43;;;;;;;13.30;7.18;;;;;;;12.46;93.61;100855.75;8272962;28;20047;-80
2022/01/01 11:14:45;;;;;;;13.60;7.07;;;;;;;12.40;93.24;100859.47;8276611;28;20050;-80
2022/01/01 11:18:46;;;;;;;11.55;6.95;;;;;;;12.43;93.82;100854.34;8266600;28;20141;-80
2022/01/01 11:22:48;;;;;;;15.10;7.50;;;;;;;12.51;92.98;100853.97;8274059;28;20050;-79
2022/01/01 11:26:51;;;;;;;13.20;7.72;;;;;;;12.47;92.63;100847.25;8276755;28;20050;-79
2022/01/01 11:30:54;;;;;;;15.95;7.80;;;;;;;12.54;92.92;100841.59;8264125;28;20110;-80
2022/01/01 11:34:56;;;;;;;11.82;6.40;;;;;;;12.61;92.92;100830.41;8273557;28;20049;-80
2022/01/01 11:39:03;;;;;;;11.90;7.50;;;;;;;12.66;93.42;100838.84;8274885;28;20050;-80
2022/01/01 11:43:05;;;;;;;13.77;7.55;;;;;;;12.66;92.16;100836.09;8276222;28;20430;-80
2022/01/01 11:47:15;;;;;;;11.10;6.32;;;;;;;12.59;91.93;100825.16;8275487;28;20046;-79
2022/01/01 11:51:22;;;;;;;13.27;7.88;;;;;;;12.52;91.85;100822.50;8276291;28;20038;-79
2022/01/01 11:55:24;;;;;;;11.20;6.85;;;;;;;12.54;91.77;100825.84;8277753;28;20076;-79
2022/01/01 11:59:27;;;;;;;14.70;7.65;;;;;;;12.59;92.02;100813.25;8267479;28;20046;-80
2022/01/01 12:03:29;;;;;;;14.95;7.40;;;;;;;12.55;91.19;100815.63;8287109;28;20062;-79
2022/01/01 12:07:30;;;;;;;15.60;7.17;;;;;;;12.52;90.73;100800.38;8270554;28;20592;-80
2022/01/01 12:11:33;;;;;;;14.07;7.43;;;;;;;12.51;90.77;100779.31;8270240;28;20061;-80
2022/01/01 12:15:50;;;;;;;16.30;8.50;;;;;;;12.50;89.89;100768.53;8268154;28;20050;-80
2022/01/01 12:19:55;;;;;;;13.95;6.93;;;;;;;12.51;89.44;100756.38;8291248;28;20061;-80
2022/01/01 12:23:58;;;;;;;13.65;8.07;;;;;;;12.58;90.58;100745.19;8263009;28;20801;-81
2022/01/01 12:28:06;;;;;;;11.77;6.47;;;;;;;12.81;90.17;100731.34;8273480;28;20463;-81
2022/01/01 12:32:08;;;;;;;12.90;7.07;;;;;;;12.78;88.81;100729.91;8264934;28;20125;-80
2022/01/01 12:36:19;;;;;;;11.93;7.03;;;;;;;12.60;89.21;100723.69;8265802;28;20142;-80
2022/01/01 12:40:24;;;;;;;12.38;6.93;;;;;;;12.83;89.72;100739.41;8273058;28;20167;-80
2022/01/01 12:44:31;;;;;;;13.05;6.68;;;;;;;12.95;89.35;100737.47;8265422;28;20571;-79
2022/01/01 12:48:33;;;;;;;12.20;6.63;;;;;;;13.03;89.42;100731.56;8245678;28;20566;-80
2022/01/01 12:52:34;;;;;;;10.43;6.75;;;;;;;13.02;89.12;100727.09;8264046;28;20047;-80
2022/01/01 12:56:38;;;;;;;11.18;6.40;;;;;;;12.89;89.10;100714.38;8266667;28;20042;-80
2022/01/01 13:00:40;;;;;;;10.77;6.13;;;;;;;12.87;89.12;100713.78;8266108;28;20069;-79
2022/01/01 13:04:42;;;;;;;11.10;6.53;;;;;;;12.82;89.37;100712.81;8266728;28;20116;-80
2022/01/01 13:08:44;;;;;;;11.75;6.78;;;;;;;12.77;89.78;100697.81;8268026;28;20057;-80
2022/01/01 13:12:48;;;;;;;12.90;6.60;;;;;;;12.97;90.63;100691.88;8277117;28;20046;-82
2022/01/01 13:16:50;;;;;;;12.95;6.22;;;;;;;13.23;90.39;100679.38;8262880;28;20054;-80
2022/01/01 13:20:52;;;;;;;12.15;6.10;;;;;;;13.21;86.99;100681.59;8271861;28;20046;-80
2022/01/01 13:24:55;;;;;;;12.43;5.83;;;;;;;13.31;87.42;100674.59;8272633;28;20125;-79
2022/01/01 13:28:58;;;;;;;8.98;6.00;;;;;;;13.35;87.35;100671.06;8263240;28;20324;-80
2022/01/01 13:33:02;;;;;;;12.00;5.55;;;;;;;13.40;87.68;100679.50;8269528;28;20043;-79
2022/01/01 13:37:07;;;;;;;10.32;5.28;;;;;;;13.35;87.23;100684.91;8269902;28;20754;-79
2022/01/01 13:41:08;;;;;;;10.02;5.40;;;;;;;13.33;86.11;100689.03;8267126;28;20526;-80
2022/01/01 13:45:10;;;;;;;9.30;5.78;;;;;;;13.22;86.87;100691.56;8265691;28;20054;-80
2022/01/01 13:49:13;;;;;;;16.17;5.88;;;;;;;13.13;86.08;100687.50;8263035;28;20065;-79
2022/01/01 13:53:15;;;;;;;12.55;6.60;;;;;;;12.96;86.96;100689.34;8274866;28;20463;-80
2022/01/01 13:57:16;;;;;;;10.77;7.30;;;;;;;12.88;86.85;100693.34;8262356;28;20077;-79
2022/01/01 14:01:19;;;;;;;13.80;7.38;;;;;;;12.74;87.86;100697.47;8267225;28;20077;-80
2022/01/01 14:05:22;;;;;;;14.82;7.13;;;;;;;12.65;87.61;100687.84;8282850;28;20045;-79
2022/01/01 14:09:25;;;;;;;15.00;8.63;;;;;;;12.48;88.31;100676.69;8274966;28;20491;-78
2022/01/01 14:13:35;;;;;;;14.10;6.85;;;;;;;12.42;88.99;100672.13;8262299;28;20054;-79
2022/01/01 14:17:54;;;;;;;15.85;8.13;;;;;;;12.38;88.74;100660.72;8274712;28;20424;-79
2022/01/01 14:22:09;;;;;;;15.43;7.68;;;;;;;12.36;89.28;100656.50;8260893;28;20480;-79
2022/01/01 14:26:18;;;;;;;15.73;8.40;;;;;;;12.27;89.46;100653.25;8278727;28;20045;-79
2022/01/01 14:30:19;;;;;;;16.05;8.65;;;;;;;12.17;89.86;100653.88;8266293;28;20543;-79
2022/01/01 14:34:21;;;;;;;17.83;9.30;;;;;;;12.10;90.26;100664.19;8275403;28;20043;-80
2022/01/01 14:38:23;;;;;;;15.38;8.25;;;;;;;12.07;90.70;100664.66;8273886;28;20061;-79
2022/01/01 14:42:25;;;;;;;15.52;8.88;;;;;;;11.97;90.19;100668.00;8273670;28;20065;-79
2022/01/01 14:46:31;;;;;;;13.27;7.73;;;;;;;11.86;91.18;100675.19;8273444;28;20047;-79
2022/01/01 14:50:48;;;;;;;14.30;7.72;;;;;;;11.81;91.36;100666.78;8279326;28;20391;-80
2022/01/01 14:55:08;;;;;;;13.75;7.88;;;;;;;11.74;91.45;100667.94;8273614;28;20081;-79
2022/01/01 14:59:15;;;;;;;18.25;7.93;;;;;;;11.63;92.06;100664.09;8269011;28;20053;-79
2022/01/01 15:03:16;;;;;;;12.00;7.85;;;;;;;11.53;92.67;100674.84;8270095;28;20073;-79
2022/01/01 15:07:19;;;;;;;15.68;8.35;;;;;;;11.40;92.86;100676.72;8273737;28;20069;-79
2022/01/01 15:11:23;;;;;;;14.35;8.13;;;;;;;11.29;93.58;100683.03;8271161;28;20106;-79
2022/01/01 15:15:25;;;;;;;14.00;7.68;;;;;;;11.14;94.29;100677.91;8265760;28;20087;-79
2022/01/01 15:19:28;;;;;;;13.05;7.15;;;;;;;10.95;94.90;100674.34;8260443;28;20130;-78
2022/01/01 15:24:01;;;;;;;13.27;7.50;;;;;;;10.78;95.62;100672.47;8270416;28;20042;-79
2022/01/01 15:28:03;;;;;;;12.18;7.22;;;;;;;10.59;95.90;100672.47;8262509;28;20066;-79
2022/01/01 15:36:36;;;;;;;14.98;7.82;;;;;;;10.22;97.44;100669.59;8245961;28;20081;-79
2022/01/01 15:41:26;;;;;;;15.95;7.72;;;;;;;10.11;98.28;100661.25;8264356;28;20057;-79
2022/01/01 15:45:06;;;;;;;13.85;7.82;;;;;;;9.98;98.24;100664.97;8262419;28;20054;-78
2022/01/01 15:49:09;;;;;;;16.55;8.35;;;;;;;9.90;99.05;100671.59;8286763;28;20123;-78
2022/01/01 15:53:11;;;;;;;17.70;10.13;;;;;;;9.80;99.50;100660.25;8291817;28;20045;-79
2022/01/01 15:57:37;;;;;;;20.27;10.50;;;;;;;9.69;100.00;100655.47;8289626;28;20046;-79
2022/01/01 16:01:44;;;;;;;16.88;9.25;;;;;;;9.55;100.00;100660.25;8289285;28;20046;-78
2022/01/01 16:05:56;;;;;;;16.23;8.65;;;;;;;9.44;100.00;100656.28;8291687;28;20399;-78
2022/01/01 16:10:02;;;;;;;15.80;7.78;;;;;;;9.32;100.00;100642.38;8296556;28;20094;-79
2022/01/01 16:14:04;;;;;;;17.25;8.70;;;;;;;9.25;100.00;100630.59;8285690;28;20053;-79
2022/01/01 16:18:10;;;;;;;15.43;8.73;;;;;;;9.15;100.00;100637.63;8250538;28;20615;-78
2022/01/01 16:22:13;;;;;;;20.85;9.15;;;;;;;9.07;100.00;100656.09;8259239;28;20045;-78
2022/01/01 16:26:18;;;;;;;12.88;7.72;;;;;;;9.00;100.00;100660.75;8265947;28;20456;-79
2022/01/01 16:30:21;;;;;;;16.65;8.10;;;;;;;8.95;100.00;100660.56;8262718;28;20271;-77
2022/01/01 16:34:28;;;;;;;15.98;7.40;;;;;;;8.88;100.00;100659.75;8272868;28;20046;-77
2022/01/01 16:38:30;;;;;;;14.88;8.25;;;;;;;8.82;100.00;100664.22;8256274;28;20510;-78
2022/01/01 16:42:37;;;;;;;17.25;8.38;;;;;;;8.79;100.00;100661.06;8263874;28;20138;-78
2022/01/01 16:46:45;;;;;;;16.67;8.70;;;;;;;8.75;100.00;100651.56;8256592;28;20074;-78
2022/01/01 16:50:54;;;;;;;18.23;8.60;;;;;;;8.74;100.00;100655.38;8263635;28;20309;-79
2022/01/01 16:54:59;;;;;;;14.52;8.10;;;;;;;8.73;100.00;100659.19;8265541;28;20477;-77
2022/01/01 16:59:02;;;;;;;26.95;13.65;;;;;;;8.73;100.00;100651.78;8255977;28;20046;-77
2022/01/01 17:03:05;;;;;;;17.85;9.52;;;;;;;8.73;100.00;100659.19;8260705;28;20042;-78
2022/01/01 17:07:08;;;;;;;16.38;8.98;;;;;;;8.74;100.00;100645.22;8271571;28;20425;-77
2022/01/01 17:11:12;;;;;;;19.10;9.85;;;;;;;8.74;100.00;100653.47;8256585;28;20133;-78
2022/01/01 17:15:14;;;;;;;16.50;8.63;;;;;;;8.76;100.00;100645.00;8257044;28;20073;-80
2022/01/01 17:19:47;;;;;;;16.33;7.53;;;;;;;8.79;100.00;100652.81;8262547;28;20057;-77
2022/01/01 17:24:01;;;;;;;15.67;8.37;;;;;;;8.81;100.00;100653.47;8261149;28;20478;-77
2022/01/01 17:28:12;;;;;;;18.33;7.60;;;;;;;8.81;100.00;100658.94;8259101;28;20796;-78
2022/01/01 17:32:18;;;;;;;21.88;8.25;;;;;;;8.82;100.00;100653.22;8262644;28;20121;-79
2022/01/01 17:36:51;;;;;;;11.38;7.22;;;;;;;8.83;100.00;100643.06;8273361;28;20054;-78
2022/01/01 17:41:09;;;;;;;14.45;7.53;;;;;;;8.83;100.00;100640.31;8267693;28;20054;-80
2022/01/01 17:45:12;;;;;;;13.10;7.78;;;;;;;8.84;100.00;100639.28;8273919;28;20425;-78
2022/01/01 17:49:19;;;;;;;14.80;8.45;;;;;;;8.84;100.00;100634.63;8263359;28;20076;-79
2022/01/01 17:53:21;;;;;;;16.92;7.90;;;;;;;8.86;100.00;100638.00;8264159;28;20054;-78
2022/01/01 17:57:25;;;;;;;15.10;7.35;;;;;;;8.87;100.00;100628.69;8260531;28;20157;-79
2022/01/01 18:01:27;;;;;;;16.38;7.03;;;;;;;8.89;100.00;100628.44;8284437;28;20125;-79
2022/01/01 18:05:30;;;;;;;13.73;7.40;;;;;;;8.89;100.00;100636.69;8270389;28;20031;-82
2022/01/01 18:09:39;;;;;;;13.40;6.90;;;;;;;8.87;100.00;100634.19;8271076;28;20094;-79
2022/01/01 18:13:47;;;;;;;12.95;6.75;;;;;;;8.83;100.00;100632.94;8271153;28;20543;-79
2022/01/01 18:18:10;;;;;;;12.20;7.53;;;;;;;8.82;100.00;100620.25;8279106;28;20049;-80
2022/01/01 18:22:12;;;;;;;14.88;7.57;;;;;;;8.80;100.00;100610.53;8279877;28;20045;-79
2022/01/01 18:26:17;;;;;;;16.00;7.35;;;;;;;8.79;100.00;100597.84;8274707;28;20439;-80
2022/01/01 18:30:19;;;;;;;14.88;7.40;;;;;;;8.78;100.00;100605.25;8279787;28;20074;-80
2022/01/01 18:34:21;;;;;;;14.25;6.55;;;;;;;8.76;100.00;100601.88;8277260;28;20806;-80
2022/01/01 18:38:27;;;;;;;16.67;6.95;;;;;;;8.72;100.00;100597.91;8269785;28;20451;-79
2022/01/01 18:42:30;;;;;;;22.15;9.38;;;;;;;8.69;100.00;100586.50;8266323;28;20045;-80
2022/01/01 18:46:33;;;;;;;;;;;;;;;8.63;100.00;100583.56;8264674;28;20126;-80